createdAt,value
2023-01-02T00:00:49.044Z,7.63
2023-01-02T00:04:51.251Z,3.83
2023-01-02T00:08:53.479Z,3.03
2023-01-02T00:12:55.751Z,5.10
2023-01-02T00:16:57.916Z,3.10
2023-01-02T00:21:04.442Z,2.35
2023-01-02T00:25:06.863Z,2.33
2023-01-02T00:29:09.728Z,5.18
2023-01-02T00:33:11.926Z,3.42
2023-01-02T00:37:14.106Z,4.78
2023-01-02T00:41:17.045Z,5.47
2023-01-02T00:45:19.228Z,6.03
2023-01-02T00:49:21.414Z,4.65
2023-01-02T00:53:23.641Z,3.65
2023-01-02T00:57:25.797Z,2.53
2023-01-02T01:01:28.031Z,3.00
2023-01-02T01:05:30.725Z,5.43
2023-01-02T01:09:32.912Z,2.63
2023-01-02T01:13:35.175Z,3.80
2023-01-02T01:17:37.350Z,4.07
2023-01-02T01:21:39.507Z,3.03
2023-01-02T01:25:41.697Z,2.72
2023-01-02T01:29:43.880Z,3.83
2023-01-02T01:33:46.288Z,3.55
2023-01-02T01:37:48.411Z,2.95
2023-01-02T01:41:50.617Z,3.53
2023-01-02T01:45:52.850Z,3.38
2023-01-02T01:50:12.754Z,2.60
2023-01-02T01:54:15.910Z,4.50
2023-01-02T01:58:19.882Z,4.55
2023-01-02T02:02:23.311Z,2.97
2023-01-02T02:06:25.860Z,3.25
2023-01-02T02:10:27.977Z,5.65
2023-01-02T02:14:30.202Z,3.92
2023-01-02T02:18:41.582Z,3.00
2023-01-02T02:22:46.751Z,2.72
2023-01-02T02:27:01.133Z,3.47
2023-01-02T02:31:08.339Z,4.22
2023-01-02T02:35:24.436Z,2.95
2023-01-02T02:39:42.645Z,3.67
2023-01-02T02:44:02.950Z,3.70
2023-01-02T02:48:20.195Z,5.15
2023-01-02T02:52:33.742Z,3.47
2023-01-02T02:56:36.549Z,1.90
2023-01-02T03:00:38.693Z,3.55
2023-01-02T03:04:40.833Z,2.10
2023-01-02T03:09:06.315Z,3.42
2023-01-02T03:13:13.647Z,2.00
2023-01-02T03:17:25.494Z,3.67
2023-01-02T03:21:31.492Z,2.88
2023-01-02T03:25:34.863Z,2.92
2023-01-02T03:29:55.505Z,2.78
2023-01-02T03:34:02.085Z,2.70
2023-01-02T03:38:07.529Z,2.90
2023-01-02T03:42:12.687Z,4.68
2023-01-02T03:46:35.147Z,3.50
2023-01-02T03:50:41.790Z,2.83
2023-01-02T03:54:44.108Z,5.45
2023-01-02T03:58:55.408Z,4.00
2023-01-02T04:03:02.384Z,2.13
2023-01-02T04:07:07.255Z,4.63
2023-01-02T04:11:09.796Z,5.20
2023-01-02T04:15:13.375Z,4.30
2023-01-02T04:19:19.302Z,2.85
2023-01-02T04:23:25.048Z,3.38
2023-01-02T04:27:34.001Z,3.00
2023-01-02T04:31:54.349Z,3.88
2023-01-02T04:35:56.500Z,2.28
2023-01-02T04:40:00.210Z,6.20
2023-01-02T04:44:02.410Z,2.65
2023-01-02T04:48:04.651Z,3.63
2023-01-02T04:52:06.767Z,4.93
2023-01-02T04:56:09.127Z,6.65
2023-01-02T05:00:11.557Z,2.08
2023-01-02T05:04:13.689Z,7.40
2023-01-02T05:08:16.532Z,3.88
2023-01-02T05:12:18.937Z,5.43
2023-01-02T05:16:21.187Z,2.63
2023-01-02T05:20:23.351Z,5.15
2023-01-02T05:24:26.285Z,5.57
2023-01-02T05:28:31.213Z,5.78
2023-01-02T05:32:37.289Z,3.38
2023-01-02T05:36:39.410Z,5.45
2023-01-02T05:40:41.568Z,4.53
2023-01-02T05:44:43.699Z,3.67
2023-01-02T05:48:45.989Z,2.47
2023-01-02T05:52:48.126Z,3.60
2023-01-02T05:56:50.255Z,3.28
2023-01-02T06:00:52.436Z,2.45
2023-01-02T06:04:54.575Z,4.15
2023-01-02T06:08:56.736Z,3.25
2023-01-02T06:12:58.943Z,5.65
2023-01-02T06:17:01.098Z,2.30
2023-01-02T06:21:04.773Z,3.33
2023-01-02T06:25:07.109Z,2.53
2023-01-02T06:29:09.470Z,2.50
2023-01-02T06:33:11.596Z,3.50
2023-01-02T06:37:13.743Z,5.53
2023-01-02T06:41:16.642Z,3.08
2023-01-02T06:45:18.842Z,3.30
2023-01-02T06:49:21.003Z,3.15
2023-01-02T06:53:23.139Z,1.92
2023-01-02T06:57:26.857Z,2.88
2023-01-02T07:01:29.138Z,2.10
2023-01-02T07:05:31.418Z,4.72
2023-01-02T07:09:33.523Z,3.72
2023-01-02T07:13:35.725Z,2.80
2023-01-02T07:17:37.886Z,1.88
2023-01-02T07:21:40.181Z,3.58
2023-01-02T07:25:44.594Z,3.88
2023-01-02T07:29:47.072Z,2.92
2023-01-02T07:33:49.596Z,2.45
2023-01-02T07:37:52.086Z,2.33
2023-01-02T07:41:54.268Z,2.17
2023-01-02T07:46:02.557Z,2.47
2023-01-02T07:50:04.874Z,3.15
2023-01-02T07:54:07.110Z,2.17
2023-01-02T07:58:09.261Z,2.70
2023-01-02T08:02:12.049Z,3.17
2023-01-02T08:06:15.636Z,2.35
2023-01-02T08:10:17.893Z,4.30
2023-01-02T08:14:23.639Z,2.28
2023-01-02T08:18:26.021Z,2.60
2023-01-02T08:22:28.179Z,3.17
2023-01-02T08:26:30.319Z,2.15
2023-01-02T08:30:32.531Z,3.92
2023-01-02T08:34:35.097Z,2.85
2023-01-02T08:38:37.258Z,1.90
2023-01-02T08:42:41.726Z,2.17
2023-01-02T08:46:43.952Z,3.20
2023-01-02T08:50:46.139Z,3.30
2023-01-02T08:54:48.279Z,2.75
2023-01-02T08:58:54.982Z,2.40
2023-01-02T09:02:57.232Z,3.78
2023-01-02T09:06:59.531Z,2.05
2023-01-02T09:11:10.267Z,2.88
2023-01-02T09:15:12.403Z,2.72
2023-01-02T09:19:14.686Z,4.13
2023-01-02T09:23:16.815Z,4.97
2023-01-02T09:27:18.980Z,2.72
2023-01-02T09:31:21.360Z,1.92
2023-01-02T09:35:23.562Z,3.17
2023-01-02T09:39:31.961Z,3.53
2023-01-02T09:43:38.207Z,1.92
2023-01-02T09:47:41.980Z,2.63
2023-01-02T09:51:44.359Z,2.00
2023-01-02T09:56:05.423Z,1.80
2023-01-02T10:00:13.387Z,1.60
2023-01-02T10:04:21.570Z,3.42
2023-01-02T10:08:41.912Z,2.13
2023-01-02T10:12:47.092Z,4.07
2023-01-02T10:16:55.385Z,2.03
2023-01-02T10:20:59.394Z,2.03
2023-01-02T10:25:13.951Z,2.75
2023-01-02T10:29:24.985Z,3.20
2023-01-02T10:33:30.250Z,2.50
2023-01-02T10:37:32.495Z,3.70
2023-01-02T10:41:34.883Z,2.95
2023-01-02T10:45:37.019Z,1.48
2023-01-02T10:49:40.717Z,2.17
2023-01-02T10:53:43.017Z,3.75
2023-01-02T10:57:46.760Z,3.53
2023-01-02T11:01:53.378Z,1.13
2023-01-02T11:06:02.100Z,2.58
2023-01-02T11:10:21.886Z,4.45
2023-01-02T11:14:25.299Z,4.45
2023-01-02T11:18:29.419Z,2.95
2023-01-02T11:22:36.671Z,3.58
2023-01-02T11:26:40.149Z,4.43
2023-01-02T11:51:22.635Z,2.08
2023-01-02T11:55:37.640Z,2.53
2023-01-02T11:59:43.347Z,2.42
2023-01-02T12:03:45.746Z,3.03
2023-01-02T12:07:50.118Z,2.13
2023-01-02T12:11:58.423Z,1.40
2023-01-02T12:16:09.585Z,1.08
2023-01-02T12:20:14.549Z,2.05
2023-01-02T12:24:35.519Z,3.97
2023-01-02T12:29:02.054Z,1.30
2023-01-02T12:33:30.389Z,3.83
2023-01-02T12:37:38.694Z,1.73
2023-01-02T12:42:01.320Z,4.20
2023-01-02T12:46:10.621Z,3.03
2023-01-02T12:50:21.531Z,5.78
2023-01-02T12:54:26.547Z,2.95
2023-01-02T12:58:43.667Z,2.22
2023-01-02T13:02:45.858Z,1.92
2023-01-02T13:06:48.022Z,1.23
2023-01-02T13:10:51.241Z,1.25
2023-01-02T13:14:59.485Z,1.23
2023-01-02T13:19:20.490Z,1.92
2023-01-02T13:23:28.598Z,3.28
2023-01-02T13:27:30.850Z,1.45
2023-01-02T13:31:49.669Z,2.17
2023-01-02T13:35:52.107Z,4.05
2023-01-02T13:39:55.481Z,1.13
2023-01-02T13:43:59.598Z,2.47
2023-01-02T13:48:03.972Z,2.00
2023-01-02T13:52:06.237Z,3.60
2023-01-02T13:56:10.199Z,2.03
2023-01-02T14:00:15.159Z,1.77
2023-01-02T14:04:17.909Z,3.67
2023-01-02T14:08:32.094Z,2.90
2023-01-02T14:12:42.340Z,3.15
2023-01-02T14:16:44.614Z,2.10
2023-01-02T14:20:49.692Z,1.48
2023-01-02T14:24:53.504Z,1.25
2023-01-02T14:28:55.768Z,6.15
2023-01-02T14:32:59.515Z,2.30
2023-01-02T14:37:02.716Z,2.35
2023-01-02T14:41:04.887Z,2.83
2023-01-02T14:45:09.896Z,2.80
2023-01-02T14:49:25.523Z,3.72
2023-01-02T14:53:42.230Z,2.83
2023-01-02T14:57:46.470Z,2.28
2023-01-02T15:01:53.787Z,1.90
2023-01-02T15:06:09.993Z,3.38
2023-01-02T15:10:12.103Z,3.20
2023-01-02T15:14:17.802Z,5.10
2023-01-02T15:18:34.192Z,3.28
2023-01-02T15:22:37.631Z,3.63
2023-01-02T15:26:41.173Z,5.35
2023-01-02T15:30:43.710Z,5.68
2023-01-02T15:34:45.836Z,1.92
2023-01-02T15:38:48.385Z,0.80
2023-01-02T15:42:51.270Z,0.80
2023-01-02T15:46:53.794Z,0.82
2023-01-02T15:50:56.961Z,1.17
2023-01-02T15:54:59.714Z,0.68
2023-01-02T15:59:02.316Z,2.55
2023-01-02T16:03:04.841Z,0.82
2023-01-02T16:07:22.657Z,0.57
2023-01-02T16:11:25.013Z,0.75
2023-01-02T16:15:29.257Z,0.45
2023-01-02T16:19:36.559Z,0.80
2023-01-02T16:23:40.006Z,0.82
2023-01-02T16:27:47.935Z,1.35
2023-01-02T16:31:51.238Z,0.68
2023-01-02T16:36:00.310Z,1.30
2023-01-02T16:41:01.458Z,0.70
2023-01-02T16:44:53.484Z,0.47
2023-01-02T16:49:01.179Z,0.32
2023-01-02T16:53:07.809Z,0.50
2023-01-02T16:57:13.171Z,0.73
2023-01-02T17:01:16.152Z,0.38
2023-01-02T17:05:19.481Z,1.92
2023-01-02T17:09:21.645Z,1.13
2023-01-02T17:13:23.847Z,0.85
2023-01-02T17:17:25.995Z,0.65
2023-01-02T17:21:32.668Z,0.80
2023-01-02T17:25:35.526Z,0.47
2023-01-02T17:29:37.744Z,0.75
2023-01-02T17:33:39.973Z,0.47
2023-01-02T17:37:42.181Z,0.20
2023-01-02T17:41:44.648Z,0.45
2023-01-02T17:45:46.817Z,1.20
2023-01-02T17:49:49.066Z,0.40
2023-01-02T17:53:54.599Z,0.30
2023-01-02T17:57:56.724Z,0.80
2023-01-02T18:02:02.498Z,0.40
2023-01-02T18:06:05.803Z,0.22
2023-01-02T18:10:09.992Z,0.60
2023-01-02T18:14:18.105Z,1.67
2023-01-02T18:18:20.214Z,0.63
2023-01-02T18:22:24.935Z,0.38
2023-01-02T18:26:27.399Z,0.20
2023-01-02T18:30:29.696Z,0.73
2023-01-02T18:34:49.280Z,0.40
2023-01-02T18:39:13.319Z,0.50
2023-01-02T18:43:18.968Z,0.68
2023-01-02T18:47:28.756Z,0.43
2023-01-02T18:51:30.900Z,0.55
2023-01-02T18:55:38.455Z,0.40
2023-01-02T18:59:49.984Z,0.90
2023-01-02T19:03:52.159Z,0.35
2023-01-02T19:08:03.570Z,0.52
2023-01-02T19:12:14.687Z,0.25
2023-01-02T19:16:20.239Z,0.47
2023-01-02T19:20:24.362Z,0.30
2023-01-02T19:24:29.384Z,0.30
2023-01-02T19:28:31.574Z,0.32
2023-01-02T19:32:34.886Z,0.93
2023-01-02T19:36:37.996Z,0.25
2023-01-02T19:40:40.114Z,0.40
2023-01-02T19:44:42.341Z,1.25
2023-01-02T19:48:44.496Z,0.70
2023-01-02T19:52:47.062Z,0.73
2023-01-02T19:56:49.321Z,0.68
2023-01-02T20:00:51.704Z,0.43
2023-01-02T20:04:54.543Z,0.40
2023-01-02T20:08:57.356Z,0.40
2023-01-02T20:12:59.507Z,0.40
2023-01-02T20:17:01.707Z,0.50
2023-01-02T20:21:03.889Z,0.75
2023-01-02T20:25:06.203Z,1.30
2023-01-02T20:29:08.568Z,0.20
2023-01-02T20:33:10.731Z,0.52
2023-01-02T20:37:12.887Z,0.73
2023-01-02T20:41:15.123Z,0.40
2023-01-02T20:45:17.481Z,0.32
2023-01-02T20:49:22.894Z,2.03
2023-01-02T20:53:25.141Z,0.50
2023-01-02T20:57:27.631Z,1.45
2023-01-02T21:01:29.947Z,0.50
2023-01-02T21:05:32.207Z,0.50
2023-01-02T21:09:34.434Z,0.70
2023-01-02T21:13:36.650Z,0.68
2023-01-02T21:17:38.829Z,0.73
2023-01-02T21:21:41.015Z,0.52
2023-01-02T21:25:43.283Z,0.25
2023-01-02T21:29:45.421Z,0.70
2023-01-02T21:33:48.183Z,1.05
2023-01-02T21:37:50.374Z,0.60
2023-01-02T21:41:52.525Z,0.63
2023-01-02T21:45:54.663Z,0.40
2023-01-02T21:49:56.758Z,0.47
2023-01-02T21:53:58.941Z,1.35
2023-01-02T21:58:16.326Z,0.82
2023-01-02T22:02:26.726Z,0.35
2023-01-02T22:06:34.061Z,0.43
2023-01-02T22:10:36.374Z,0.80
2023-01-02T22:14:38.972Z,1.73
2023-01-02T22:18:41.090Z,0.50
2023-01-02T22:22:43.268Z,0.68
2023-01-02T22:26:46.360Z,1.05
2023-01-02T22:30:48.520Z,0.40
2023-01-02T22:34:51.027Z,0.63
2023-01-02T22:39:25.871Z,0.55
2023-01-02T22:43:19.367Z,0.60
2023-01-02T22:47:29.192Z,1.70
2023-01-02T22:52:05.511Z,2.42
2023-01-02T22:55:56.522Z,2.05
2023-01-02T22:59:58.721Z,0.60
2023-01-02T23:04:01.332Z,1.88
2023-01-02T23:08:03.591Z,0.85
2023-01-02T23:12:05.890Z,1.88
2023-01-02T23:16:08.054Z,0.82
2023-01-02T23:20:10.447Z,1.10
2023-01-02T23:24:13.626Z,1.33
2023-01-02T23:28:39.207Z,2.47
2023-01-02T23:32:37.970Z,2.58
2023-01-02T23:36:40.586Z,1.10
2023-01-02T23:40:42.741Z,3.33
2023-01-02T23:44:44.945Z,1.60
2023-01-02T23:48:47.166Z,1.63
2023-01-02T23:52:49.345Z,1.53
2023-01-02T23:56:51.736Z,1.17
